sensor_id;sensor_type;location;lat;lon;timestamp;P1;durP1;ratioP1;P2;durP2;ratioP2
28605;SDS011;46498;49.968;7.754;2022-12-08T00:03:47;33.38;;;11.65;;
28605;SDS011;46498;49.968;7.754;2022-12-08T00:08:49;27.98;;;12.80;;
28605;SDS011;46498;49.968;7.754;2022-12-08T00:14:09;28.52;;;11.10;;
28605;SDS011;46498;49.968;7.754;2022-12-08T00:19:10;27.20;;;11.82;;
28605;SDS011;46498;49.968;7.754;2022-12-08T00:24:11;27.55;;;10.98;;
28605;SDS011;46498;49.968;7.754;2022-12-08T00:29:12;23.02;;;10.43;;
28605;SDS011;46498;49.968;7.754;2022-12-08T00:34:18;19.25;;;9.35;;
28605;SDS011;46498;49.968;7.754;2022-12-08T00:39:19;26.90;;;10.60;;
28605;SDS011;46498;49.968;7.754;2022-12-08T00:44:19;27.45;;;10.18;;
28605;SDS011;46498;49.968;7.754;2022-12-08T00:49:20;17.02;;;9.05;;
28605;SDS011;46498;49.968;7.754;2022-12-08T00:54:22;19.87;;;8.77;;
28605;SDS011;46498;49.968;7.754;2022-12-08T00:59:23;16.73;;;8.30;;
28605;SDS011;46498;49.968;7.754;2022-12-08T01:04:24;14.23;;;7.65;;
28605;SDS011;46498;49.968;7.754;2022-12-08T01:09:26;16.83;;;8.55;;
28605;SDS011;46498;49.968;7.754;2022-12-08T01:14:26;18.50;;;8.30;;
28605;SDS011;46498;49.968;7.754;2022-12-08T01:19:27;19.08;;;8.88;;
28605;SDS011;46498;49.968;7.754;2022-12-08T01:24:28;15.98;;;8.18;;
28605;SDS011;46498;49.968;7.754;2022-12-08T01:29:29;19.70;;;8.65;;
28605;SDS011;46498;49.968;7.754;2022-12-08T01:34:30;24.45;;;8.93;;
28605;SDS011;46498;49.968;7.754;2022-12-08T01:39:31;17.20;;;7.72;;
28605;SDS011;46498;49.968;7.754;2022-12-08T01:44:54;19.05;;;8.45;;
28605;SDS011;46498;49.968;7.754;2022-12-08T01:49:58;18.27;;;8.13;;
28605;SDS011;46498;49.968;7.754;2022-12-08T01:55:07;18.62;;;8.80;;
28605;SDS011;46498;49.968;7.754;2022-12-08T02:00:17;20.10;;;7.72;;
28605;SDS011;46498;49.968;7.754;2022-12-08T02:05:21;15.02;;;7.12;;
28605;SDS011;46498;49.968;7.754;2022-12-08T02:10:27;18.42;;;7.57;;
28605;SDS011;46498;49.968;7.754;2022-12-08T02:37:17;14.25;;;6.85;;
28605;SDS011;46498;49.968;7.754;2022-12-08T02:42:37;13.68;;;6.72;;
28605;SDS011;46498;49.968;7.754;2022-12-08T02:47:43;15.52;;;5.85;;
28605;SDS011;46498;49.968;7.754;2022-12-08T02:52:45;13.48;;;6.65;;
28605;SDS011;46498;49.968;7.754;2022-12-08T03:04:41;13.80;;;5.40;;
28605;SDS011;46498;49.968;7.754;2022-12-08T03:09:53;14.73;;;6.60;;
28605;SDS011;46498;49.968;7.754;2022-12-08T03:15:02;12.65;;;6.10;;
28605;SDS011;46498;49.968;7.754;2022-12-08T03:20:11;13.48;;;6.10;;
28605;SDS011;46498;49.968;7.754;2022-12-08T03:25:16;10.30;;;5.60;;
28605;SDS011;46498;49.968;7.754;2022-12-08T03:30:20;11.90;;;5.12;;
28605;SDS011;46498;49.968;7.754;2022-12-08T03:35:22;12.77;;;6.03;;
28605;SDS011;46498;49.968;7.754;2022-12-08T03:40:26;11.60;;;5.45;;
28605;SDS011;46498;49.968;7.754;2022-12-08T03:45:27;16.70;;;6.35;;
28605;SDS011;46498;49.968;7.754;2022-12-08T03:50:28;12.60;;;5.85;;
28605;SDS011;46498;49.968;7.754;2022-12-08T03:55:29;20.05;;;7.30;;
28605;SDS011;46498;49.968;7.754;2022-12-08T04:00:30;15.30;;;7.85;;
28605;SDS011;46498;49.968;7.754;2022-12-08T04:05:30;14.90;;;6.43;;
28605;SDS011;46498;49.968;7.754;2022-12-08T04:10:31;12.27;;;5.72;;
28605;SDS011;46498;49.968;7.754;2022-12-08T04:15:32;18.02;;;8.02;;
28605;SDS011;46498;49.968;7.754;2022-12-08T04:20:33;18.77;;;8.05;;
28605;SDS011;46498;49.968;7.754;2022-12-08T04:25:38;19.15;;;6.85;;
28605;SDS011;46498;49.968;7.754;2022-12-08T04:30:40;14.35;;;6.25;;
28605;SDS011;46498;49.968;7.754;2022-12-08T04:35:40;17.42;;;7.22;;
28605;SDS011;46498;49.968;7.754;2022-12-08T04:40:41;15.98;;;7.22;;
28605;SDS011;46498;49.968;7.754;2022-12-08T04:45:42;12.48;;;6.45;;
28605;SDS011;46498;49.968;7.754;2022-12-08T04:50:43;16.20;;;7.82;;
28605;SDS011;46498;49.968;7.754;2022-12-08T04:55:45;15.82;;;8.05;;
28605;SDS011;46498;49.968;7.754;2022-12-08T05:00:48;18.62;;;8.23;;
28605;SDS011;46498;49.968;7.754;2022-12-08T05:05:49;15.63;;;7.47;;
28605;SDS011;46498;49.968;7.754;2022-12-08T05:10:50;18.73;;;7.68;;
28605;SDS011;46498;49.968;7.754;2022-12-08T05:15:51;20.10;;;9.13;;
28605;SDS011;46498;49.968;7.754;2022-12-08T05:20:52;17.65;;;9.02;;
28605;SDS011;46498;49.968;7.754;2022-12-08T05:25:52;17.90;;;9.13;;
28605;SDS011;46498;49.968;7.754;2022-12-08T05:30:53;15.60;;;7.80;;
28605;SDS011;46498;49.968;7.754;2022-12-08T05:35:54;18.87;;;8.80;;
28605;SDS011;46498;49.968;7.754;2022-12-08T05:40:55;16.15;;;7.80;;
28605;SDS011;46498;49.968;7.754;2022-12-08T05:45:55;16.62;;;8.18;;
28605;SDS011;46498;49.968;7.754;2022-12-08T05:50:57;19.60;;;8.50;;
28605;SDS011;46498;49.968;7.754;2022-12-08T05:55:57;19.75;;;8.88;;
28605;SDS011;46498;49.968;7.754;2022-12-08T06:00:58;23.08;;;9.70;;
28605;SDS011;46498;49.968;7.754;2022-12-08T06:05:59;53.83;;;17.37;;
28605;SDS011;46498;49.968;7.754;2022-12-08T06:11:00;19.17;;;7.90;;
28605;SDS011;46498;49.968;7.754;2022-12-08T06:16:05;62.33;;;25.30;;
28605;SDS011;46498;49.968;7.754;2022-12-08T06:21:07;19.70;;;7.97;;
28605;SDS011;46498;49.968;7.754;2022-12-08T06:26:11;18.37;;;7.37;;
28605;SDS011;46498;49.968;7.754;2022-12-08T06:31:21;18.37;;;7.40;;
28605;SDS011;46498;49.968;7.754;2022-12-08T06:36:25;16.62;;;7.68;;
28605;SDS011;46498;49.968;7.754;2022-12-08T06:41:28;20.10;;;7.18;;
28605;SDS011;46498;49.968;7.754;2022-12-08T06:46:29;19.62;;;7.93;;
28605;SDS011;46498;49.968;7.754;2022-12-08T06:51:30;22.25;;;8.95;;
28605;SDS011;46498;49.968;7.754;2022-12-08T06:56:30;24.17;;;8.18;;
28605;SDS011;46498;49.968;7.754;2022-12-08T07:01:31;18.65;;;6.65;;
28605;SDS011;46498;49.968;7.754;2022-12-08T07:06:32;13.57;;;5.70;;
28605;SDS011;46498;49.968;7.754;2022-12-08T07:11:33;21.30;;;8.55;;
28605;SDS011;46498;49.968;7.754;2022-12-08T07:16:34;26.48;;;9.48;;
28605;SDS011;46498;49.968;7.754;2022-12-08T07:21:35;21.37;;;7.25;;
28605;SDS011;46498;49.968;7.754;2022-12-08T07:26:36;24.67;;;7.22;;
28605;SDS011;46498;49.968;7.754;2022-12-08T07:31:37;15.32;;;5.97;;
28605;SDS011;46498;49.968;7.754;2022-12-08T07:36:38;14.05;;;6.78;;
28605;SDS011;46498;49.968;7.754;2022-12-08T07:41:40;11.48;;;5.12;;
28605;SDS011;46498;49.968;7.754;2022-12-08T07:46:40;11.90;;;5.18;;
28605;SDS011;46498;49.968;7.754;2022-12-08T07:51:41;10.95;;;5.78;;
28605;SDS011;46498;49.968;7.754;2022-12-08T07:56:42;13.85;;;5.50;;
28605;SDS011;46498;49.968;7.754;2022-12-08T08:01:43;13.27;;;5.10;;
28605;SDS011;46498;49.968;7.754;2022-12-08T08:06:46;12.53;;;5.43;;
28605;SDS011;46498;49.968;7.754;2022-12-08T08:11:46;10.25;;;5.03;;
28605;SDS011;46498;49.968;7.754;2022-12-08T08:17:23;14.65;;;5.47;;
28605;SDS011;46498;49.968;7.754;2022-12-08T08:22:24;14.40;;;4.40;;
28605;SDS011;46498;49.968;7.754;2022-12-08T08:27:26;9.68;;;4.82;;
28605;SDS011;46498;49.968;7.754;2022-12-08T08:32:27;10.05;;;4.25;;
28605;SDS011;46498;49.968;7.754;2022-12-08T08:37:28;11.85;;;4.53;;
28605;SDS011;46498;49.968;7.754;2022-12-08T08:42:28;10.25;;;4.87;;
28605;SDS011;46498;49.968;7.754;2022-12-08T08:47:29;10.43;;;5.20;;
28605;SDS011;46498;49.968;7.754;2022-12-08T08:52:30;8.13;;;3.87;;
28605;SDS011;46498;49.968;7.754;2022-12-08T08:57:31;12.68;;;4.40;;
28605;SDS011;46498;49.968;7.754;2022-12-08T09:02:32;11.68;;;3.90;;
28605;SDS011;46498;49.968;7.754;2022-12-08T09:07:33;12.52;;;4.18;;
28605;SDS011;46498;49.968;7.754;2022-12-08T09:12:34;8.95;;;4.25;;
28605;SDS011;46498;49.968;7.754;2022-12-08T09:17:34;10.27;;;4.30;;
28605;SDS011;46498;49.968;7.754;2022-12-08T09:22:35;14.05;;;5.15;;
28605;SDS011;46498;49.968;7.754;2022-12-08T09:27:36;8.85;;;3.85;;
28605;SDS011;46498;49.968;7.754;2022-12-08T09:32:37;14.55;;;5.22;;
28605;SDS011;46498;49.968;7.754;2022-12-08T09:37:38;12.20;;;4.47;;
28605;SDS011;46498;49.968;7.754;2022-12-08T09:42:43;8.38;;;3.87;;
28605;SDS011;46498;49.968;7.754;2022-12-08T09:47:58;5.18;;;3.40;;
28605;SDS011;46498;49.968;7.754;2022-12-08T09:53:27;6.87;;;3.20;;
28605;SDS011;46498;49.968;7.754;2022-12-08T10:05:13;5.82;;;3.10;;
28605;SDS011;46498;49.968;7.754;2022-12-08T10:10:24;7.03;;;3.62;;
28605;SDS011;46498;49.968;7.754;2022-12-08T10:22:20;7.70;;;3.42;;
28605;SDS011;46498;49.968;7.754;2022-12-08T10:27:24;8.68;;;3.62;;
28605;SDS011;46498;49.968;7.754;2022-12-08T10:32:27;9.25;;;3.62;;
28605;SDS011;46498;49.968;7.754;2022-12-08T10:37:33;8.18;;;3.80;;
28605;SDS011;46498;49.968;7.754;2022-12-08T10:42:36;10.25;;;3.40;;
28605;SDS011;46498;49.968;7.754;2022-12-08T10:47:41;9.65;;;4.00;;
28605;SDS011;46498;49.968;7.754;2022-12-08T10:52:56;13.45;;;3.78;;
28605;SDS011;46498;49.968;7.754;2022-12-08T10:57:59;6.15;;;3.87;;
28605;SDS011;46498;49.968;7.754;2022-12-08T11:03:03;7.25;;;3.70;;
28605;SDS011;46498;49.968;7.754;2022-12-08T11:08:05;7.68;;;4.40;;
28605;SDS011;46498;49.968;7.754;2022-12-08T11:13:19;11.18;;;4.00;;
28605;SDS011;46498;49.968;7.754;2022-12-08T11:23:47;7.20;;;3.50;;
28605;SDS011;46498;49.968;7.754;2022-12-08T11:28:49;10.63;;;4.20;;
28605;SDS011;46498;49.968;7.754;2022-12-08T11:33:50;10.77;;;5.00;;
28605;SDS011;46498;49.968;7.754;2022-12-08T11:38:54;7.00;;;3.12;;
28605;SDS011;46498;49.968;7.754;2022-12-08T11:45:00;5.68;;;3.28;;
28605;SDS011;46498;49.968;7.754;2022-12-08T11:55:29;6.03;;;2.72;;
28605;SDS011;46498;49.968;7.754;2022-12-08T12:00:39;7.43;;;3.15;;
28605;SDS011;46498;49.968;7.754;2022-12-08T12:18:46;8.07;;;3.55;;
28605;SDS011;46498;49.968;7.754;2022-12-08T12:23:52;8.90;;;2.50;;
28605;SDS011;46498;49.968;7.754;2022-12-08T12:29:07;5.85;;;2.92;;
28605;SDS011;46498;49.968;7.754;2022-12-08T12:34:28;8.55;;;4.07;;
28605;SDS011;46498;49.968;7.754;2022-12-08T12:39:33;9.48;;;2.92;;
28605;SDS011;46498;49.968;7.754;2022-12-08T12:44:45;4.78;;;2.90;;
28605;SDS011;46498;49.968;7.754;2022-12-08T12:49:48;4.40;;;2.50;;
28605;SDS011;46498;49.968;7.754;2022-12-08T13:01:49;13.27;;;3.45;;
28605;SDS011;46498;49.968;7.754;2022-12-08T13:06:54;6.18;;;2.30;;
28605;SDS011;46498;49.968;7.754;2022-12-08T13:11:56;6.82;;;2.97;;
28605;SDS011;46498;49.968;7.754;2022-12-08T13:17:00;8.25;;;3.05;;
28605;SDS011;46498;49.968;7.754;2022-12-08T13:22:45;5.85;;;3.25;;
28605;SDS011;46498;49.968;7.754;2022-12-08T13:27:52;8.52;;;3.60;;
28605;SDS011;46498;49.968;7.754;2022-12-08T13:32:55;8.00;;;3.08;;
28605;SDS011;46498;49.968;7.754;2022-12-08T13:38:29;7.25;;;3.53;;
28605;SDS011;46498;49.968;7.754;2022-12-08T13:48:56;5.82;;;3.65;;
28605;SDS011;46498;49.968;7.754;2022-12-08T13:54:35;6.83;;;3.70;;
28605;SDS011;46498;49.968;7.754;2022-12-08T14:00:17;6.68;;;3.72;;
28605;SDS011;46498;49.968;7.754;2022-12-08T14:05:20;6.72;;;3.83;;
28605;SDS011;46498;49.968;7.754;2022-12-08T14:11:03;9.35;;;4.20;;
28605;SDS011;46498;49.968;7.754;2022-12-08T14:16:10;8.00;;;4.00;;
28605;SDS011;46498;49.968;7.754;2022-12-08T14:21:27;7.85;;;3.35;;
28605;SDS011;46498;49.968;7.754;2022-12-08T14:26:36;6.50;;;3.50;;
28605;SDS011;46498;49.968;7.754;2022-12-08T14:31:38;8.63;;;3.80;;
28605;SDS011;46498;49.968;7.754;2022-12-08T14:36:40;10.05;;;3.70;;
28605;SDS011;46498;49.968;7.754;2022-12-08T14:41:40;9.13;;;4.12;;
28605;SDS011;46498;49.968;7.754;2022-12-08T14:47:02;9.63;;;3.80;;
28605;SDS011;46498;49.968;7.754;2022-12-08T14:52:08;16.10;;;7.45;;
28605;SDS011;46498;49.968;7.754;2022-12-08T14:57:12;18.02;;;7.53;;
28605;SDS011;46498;49.968;7.754;2022-12-08T15:02:25;13.02;;;4.72;;
28605;SDS011;46498;49.968;7.754;2022-12-08T15:07:33;11.68;;;4.72;;
28605;SDS011;46498;49.968;7.754;2022-12-08T15:13:22;12.57;;;5.65;;
28605;SDS011;46498;49.968;7.754;2022-12-08T15:18:36;12.52;;;6.00;;
28605;SDS011;46498;49.968;7.754;2022-12-08T15:23:40;11.73;;;6.20;;
28605;SDS011;46498;49.968;7.754;2022-12-08T15:28:44;12.82;;;6.80;;
28605;SDS011;46498;49.968;7.754;2022-12-08T15:33:45;9.55;;;5.75;;
28605;SDS011;46498;49.968;7.754;2022-12-08T15:38:46;19.10;;;10.98;;
28605;SDS011;46498;49.968;7.754;2022-12-08T15:43:47;9.45;;;5.50;;
28605;SDS011;46498;49.968;7.754;2022-12-08T15:48:47;13.68;;;6.82;;
28605;SDS011;46498;49.968;7.754;2022-12-08T15:53:53;10.18;;;5.78;;
28605;SDS011;46498;49.968;7.754;2022-12-08T15:58:54;13.35;;;6.78;;
28605;SDS011;46498;49.968;7.754;2022-12-08T16:03:57;17.17;;;6.78;;
28605;SDS011;46498;49.968;7.754;2022-12-08T16:09:30;13.57;;;7.65;;
28605;SDS011;46498;49.968;7.754;2022-12-08T16:14:36;10.77;;;6.18;;
28605;SDS011;46498;49.968;7.754;2022-12-08T16:20:12;10.68;;;6.28;;
28605;SDS011;46498;49.968;7.754;2022-12-08T16:25:14;15.60;;;7.12;;
28605;SDS011;46498;49.968;7.754;2022-12-08T16:30:21;9.70;;;5.87;;
28605;SDS011;46498;49.968;7.754;2022-12-08T16:35:22;15.57;;;7.78;;
28605;SDS011;46498;49.968;7.754;2022-12-08T16:40:23;21.42;;;11.05;;
28605;SDS011;46498;49.968;7.754;2022-12-08T16:45:25;20.12;;;11.32;;
28605;SDS011;46498;49.968;7.754;2022-12-08T16:50:30;20.92;;;10.02;;
28605;SDS011;46498;49.968;7.754;2022-12-08T16:55:33;16.20;;;7.43;;
28605;SDS011;46498;49.968;7.754;2022-12-08T17:00:34;14.50;;;7.82;;
28605;SDS011;46498;49.968;7.754;2022-12-08T17:05:38;17.48;;;8.32;;
28605;SDS011;46498;49.968;7.754;2022-12-08T17:10:40;15.75;;;6.68;;
28605;SDS011;46498;49.968;7.754;2022-12-08T17:15:41;20.90;;;8.25;;
28605;SDS011;46498;49.968;7.754;2022-12-08T17:20:42;20.42;;;9.90;;
28605;SDS011;46498;49.968;7.754;2022-12-08T17:25:43;19.70;;;8.63;;
28605;SDS011;46498;49.968;7.754;2022-12-08T17:30:44;24.02;;;10.65;;
28605;SDS011;46498;49.968;7.754;2022-12-08T17:35:48;19.00;;;7.80;;
28605;SDS011;46498;49.968;7.754;2022-12-08T17:40:50;13.48;;;6.22;;
28605;SDS011;46498;49.968;7.754;2022-12-08T17:45:58;17.00;;;6.32;;
28605;SDS011;46498;49.968;7.754;2022-12-08T17:51:00;11.65;;;6.10;;
28605;SDS011;46498;49.968;7.754;2022-12-08T17:56:01;12.77;;;5.50;;
28605;SDS011;46498;49.968;7.754;2022-12-08T18:01:05;10.57;;;5.72;;
28605;SDS011;46498;49.968;7.754;2022-12-08T18:06:08;13.65;;;6.32;;
28605;SDS011;46498;49.968;7.754;2022-12-08T18:11:13;13.70;;;7.37;;
28605;SDS011;46498;49.968;7.754;2022-12-08T18:16:18;19.92;;;8.98;;
28605;SDS011;46498;49.968;7.754;2022-12-08T18:21:20;16.67;;;6.80;;
28605;SDS011;46498;49.968;7.754;2022-12-08T18:26:24;14.40;;;8.48;;
28605;SDS011;46498;49.968;7.754;2022-12-08T18:31:25;12.27;;;6.53;;
28605;SDS011;46498;49.968;7.754;2022-12-08T18:36:26;17.75;;;6.72;;
28605;SDS011;46498;49.968;7.754;2022-12-08T18:41:27;15.68;;;7.32;;
28605;SDS011;46498;49.968;7.754;2022-12-08T18:46:28;15.27;;;6.78;;
28605;SDS011;46498;49.968;7.754;2022-12-08T18:51:29;12.40;;;6.80;;
28605;SDS011;46498;49.968;7.754;2022-12-08T18:56:31;16.83;;;7.75;;
28605;SDS011;46498;49.968;7.754;2022-12-08T19:01:34;20.20;;;9.35;;
28605;SDS011;46498;49.968;7.754;2022-12-08T19:06:37;25.23;;;10.35;;
28605;SDS011;46498;49.968;7.754;2022-12-08T19:11:40;27.83;;;11.43;;
28605;SDS011;46498;49.968;7.754;2022-12-08T19:16:41;25.30;;;11.07;;
28605;SDS011;46498;49.968;7.754;2022-12-08T19:21:42;18.70;;;8.55;;
28605;SDS011;46498;49.968;7.754;2022-12-08T19:26:47;13.57;;;7.18;;
28605;SDS011;46498;49.968;7.754;2022-12-08T19:31:48;15.82;;;6.60;;
28605;SDS011;46498;49.968;7.754;2022-12-08T19:36:49;19.20;;;8.63;;
28605;SDS011;46498;49.968;7.754;2022-12-08T19:41:50;17.45;;;8.65;;
28605;SDS011;46498;49.968;7.754;2022-12-08T19:47:10;19.48;;;9.75;;
28605;SDS011;46498;49.968;7.754;2022-12-08T19:52:11;17.87;;;7.78;;
28605;SDS011;46498;49.968;7.754;2022-12-08T19:57:12;12.48;;;6.78;;
28605;SDS011;46498;49.968;7.754;2022-12-08T20:02:13;14.07;;;6.60;;
28605;SDS011;46498;49.968;7.754;2022-12-08T20:07:14;13.15;;;5.57;;
28605;SDS011;46498;49.968;7.754;2022-12-08T20:12:14;10.80;;;5.28;;
28605;SDS011;46498;49.968;7.754;2022-12-08T20:17:15;9.73;;;5.32;;
28605;SDS011;46498;49.968;7.754;2022-12-08T20:22:16;9.70;;;4.80;;
28605;SDS011;46498;49.968;7.754;2022-12-08T20:27:17;8.60;;;4.53;;
28605;SDS011;46498;49.968;7.754;2022-12-08T20:32:19;10.23;;;4.97;;
28605;SDS011;46498;49.968;7.754;2022-12-08T20:37:20;11.00;;;4.72;;
28605;SDS011;46498;49.968;7.754;2022-12-08T20:42:21;17.12;;;6.03;;
28605;SDS011;46498;49.968;7.754;2022-12-08T20:47:23;11.20;;;5.35;;
28605;SDS011;46498;49.968;7.754;2022-12-08T20:52:24;11.45;;;5.57;;
28605;SDS011;46498;49.968;7.754;2022-12-08T20:57:25;10.43;;;5.57;;
28605;SDS011;46498;49.968;7.754;2022-12-08T21:02:26;11.65;;;5.25;;
28605;SDS011;46498;49.968;7.754;2022-12-08T21:07:27;16.77;;;6.53;;
28605;SDS011;46498;49.968;7.754;2022-12-08T21:12:29;41.13;;;15.10;;
28605;SDS011;46498;49.968;7.754;2022-12-08T21:17:30;40.40;;;14.55;;
28605;SDS011;46498;49.968;7.754;2022-12-08T21:22:31;16.52;;;7.20;;
28605;SDS011;46498;49.968;7.754;2022-12-08T21:27:32;15.02;;;6.65;;
28605;SDS011;46498;49.968;7.754;2022-12-08T21:32:33;12.80;;;6.22;;
28605;SDS011;46498;49.968;7.754;2022-12-08T21:37:35;17.55;;;6.78;;
28605;SDS011;46498;49.968;7.754;2022-12-08T21:42:36;26.50;;;9.70;;
28605;SDS011;46498;49.968;7.754;2022-12-08T21:47:43;35.67;;;13.18;;
28605;SDS011;46498;49.968;7.754;2022-12-08T21:52:46;15.65;;;7.10;;
28605;SDS011;46498;49.968;7.754;2022-12-08T21:57:48;10.33;;;5.33;;
28605;SDS011;46498;49.968;7.754;2022-12-08T22:02:49;11.27;;;5.07;;
28605;SDS011;46498;49.968;7.754;2022-12-08T22:07:50;31.20;;;12.32;;
28605;SDS011;46498;49.968;7.754;2022-12-08T22:12:51;24.40;;;10.05;;
28605;SDS011;46498;49.968;7.754;2022-12-08T22:17:52;22.65;;;10.73;;
28605;SDS011;46498;49.968;7.754;2022-12-08T22:22:53;17.95;;;9.07;;
28605;SDS011;46498;49.968;7.754;2022-12-08T22:27:54;27.87;;;12.30;;
28605;SDS011;46498;49.968;7.754;2022-12-08T22:32:55;22.52;;;11.60;;
28605;SDS011;46498;49.968;7.754;2022-12-08T22:37:57;39.33;;;15.52;;
28605;SDS011;46498;49.968;7.754;2022-12-08T22:42:58;91.85;;;30.62;;
28605;SDS011;46498;49.968;7.754;2022-12-08T22:47:59;97.22;;;30.50;;
28605;SDS011;46498;49.968;7.754;2022-12-08T22:53:00;81.68;;;25.02;;
28605;SDS011;46498;49.968;7.754;2022-12-08T22:58:01;69.37;;;21.87;;
28605;SDS011;46498;49.968;7.754;2022-12-08T23:03:02;46.60;;;17.55;;
28605;SDS011;46498;49.968;7.754;2022-12-08T23:08:04;36.25;;;15.63;;
28605;SDS011;46498;49.968;7.754;2022-12-08T23:13:07;25.15;;;11.85;;
28605;SDS011;46498;49.968;7.754;2022-12-08T23:18:10;23.30;;;8.60;;
28605;SDS011;46498;49.968;7.754;2022-12-08T23:23:14;10.52;;;5.78;;
28605;SDS011;46498;49.968;7.754;2022-12-08T23:28:15;13.23;;;6.15;;
28605;SDS011;46498;49.968;7.754;2022-12-08T23:33:16;27.65;;;7.18;;
28605;SDS011;46498;49.968;7.754;2022-12-08T23:38:17;14.93;;;5.95;;
28605;SDS011;46498;49.968;7.754;2022-12-08T23:43:18;11.98;;;5.62;;
28605;SDS011;46498;49.968;7.754;2022-12-08T23:48:19;12.18;;;4.93;;
28605;SDS011;46498;49.968;7.754;2022-12-08T23:53:20;10.85;;;5.15;;
28605;SDS011;46498;49.968;7.754;2022-12-08T23:58:21;12.40;;;5.55;;
